Airfield :







YOU CAN JOIN US ON...

 
LOGIN :

Register | Disclaimer

   EN    FR    IT 

 









Legend :    VFR   Marginal VFR   IFR   Intensive IFR   Very Intensive IFR
Visi :
Ceiling :
>= 8 km
>= 3000ft
5 to 8 km
1000 to 3000 ft
1500m to 5 km
500 to 1000 ft
800 to 1500m
200 to 500 ft
< 800m
< 200 ft
Symbols :   Thunderstorms  Fog  Heavy snow  Heavy precipitations  Wind > 20 kt






- Airport Elevation : 285 ft
- IATA code : ALB


KALB - Albany International

CURRENT METAR :
  • 291051Z 30010G18KT 10SM OVC060 M05/M13 A3012 RMK AO2 SLP200 T10501128 $

EXPIRED METARs :
  • 290951Z 30016G26KT 10SM FEW041 M05/M13 A3008 RMK AO2 PK WND 29029/0907 SLP187 T10501128 $
  • 290851Z 30018G28KT 10SM SCT041 M04/M12 A3004 RMK AO2 PK WND 30028/0848 SLP176 T10441122 $
  • 290751Z 31010G19KT 10SM FEW037 BKN043 M04/M12 A3001 RMK AO2 SLP163 T10391117 $
  • 290651Z 34019G25KT 10SM SCT039 M02/M12 A2998 RMK AO2 SLPNO T10231120

TAF KALB
Valid from the 29 at 06:00 until the 01 at 06:00 UTC


290520Z 2906/0106 28022G40KT P6SM -SHSN BKN045
FM291000 29018G28KT P6SM VCSH BKN050
FM291800 28022G31KT P6SM VCSH BKN050
PROB30 2919/2923 3SM -SHSN BR
FM010100 28015G23KT P6SM SCT040
KZBW FIR / North America



MET'MAP, your aeronautical weather chart ! - Copyright ORBIFLY December 2007 - Disclaimer

ORBIFLY MET'MAP TEAM :

Programming & Development : Alexandra Zaïnal
Original concept : Baudouin d'Aumeries
Technical & hardware support : Manuel Goepfert
Assistance : Marc-Olivier Méhu




SOURCES & CREDITS :

   NOAA